sensor_id;sensor_type;location;lat;lon;timestamp;pressure;altitude;pressure_sealevel;temperature;humidity
54512;BME280;40419;47.438;19.026;2023-03-30T00:00:54;100347.16;;;4.73;100.00
54512;BME280;40419;47.438;19.026;2023-03-30T00:03:27;100338.25;;;4.72;100.00
54512;BME280;40419;47.438;19.026;2023-03-30T00:05:54;100331.84;;;4.83;100.00
54512;BME280;40419;47.438;19.026;2023-03-30T00:08:27;100335.34;;;4.84;100.00
54512;BME280;40419;47.438;19.026;2023-03-30T00:11:10;100337.72;;;4.87;100.00
54512;BME280;40419;47.438;19.026;2023-03-30T00:13:36;100336.75;;;4.88;100.00
54512;BME280;40419;47.438;19.026;2023-03-30T00:16:09;100332.56;;;4.93;100.00
54512;BME280;40419;47.438;19.026;2023-03-30T00:18:38;100339.00;;;5.01;100.00
54512;BME280;40419;47.438;19.026;2023-03-30T00:21:05;100333.50;;;5.02;100.00
54512;BME280;40419;47.438;19.026;2023-03-30T00:23:34;100325.28;;;5.04;100.00
54512;BME280;40419;47.438;19.026;2023-03-30T00:26:02;100340.00;;;5.00;100.00
54512;BME280;40419;47.438;19.026;2023-03-30T00:28:33;100336.47;;;4.99;100.00
54512;BME280;40419;47.438;19.026;2023-03-30T00:31:01;100319.41;;;5.00;100.00
54512;BME280;40419;47.438;19.026;2023-03-30T00:33:31;100327.28;;;5.02;100.00
54512;BME280;40419;47.438;19.026;2023-03-30T00:36:01;100319.91;;;5.04;100.00
54512;BME280;40419;47.438;19.026;2023-03-30T00:38:29;100313.88;;;5.02;100.00
54512;BME280;40419;47.438;19.026;2023-03-30T00:40:57;100319.91;;;5.04;100.00
54512;BME280;40419;47.438;19.026;2023-03-30T00:43:24;100314.84;;;5.01;100.00
54512;BME280;40419;47.438;19.026;2023-03-30T00:45:57;100308.50;;;5.02;100.00
54512;BME280;40419;47.438;19.026;2023-03-30T00:48:33;100300.81;;;5.07;100.00
54512;BME280;40419;47.438;19.026;2023-03-30T00:51:09;100298.13;;;5.07;100.00
54512;BME280;40419;47.438;19.026;2023-03-30T00:53:41;100301.84;;;5.06;100.00
54512;BME280;40419;47.438;19.026;2023-03-30T00:56:09;100298.69;;;4.92;100.00
54512;BME280;40419;47.438;19.026;2023-03-30T00:58:39;100303.06;;;4.93;100.00
54512;BME280;40419;47.438;19.026;2023-03-30T01:01:10;100299.00;;;4.89;100.00
54512;BME280;40419;47.438;19.026;2023-03-30T01:03:44;100292.25;;;4.85;100.00
54512;BME280;40419;47.438;19.026;2023-03-30T01:06:11;100289.59;;;4.85;100.00
54512;BME280;40419;47.438;19.026;2023-03-30T01:08:39;100288.91;;;4.83;100.00
54512;BME280;40419;47.438;19.026;2023-03-30T01:11:09;100282.84;;;4.81;100.00
54512;BME280;40419;47.438;19.026;2023-03-30T01:13:38;100265.34;;;4.77;100.00
54512;BME280;40419;47.438;19.026;2023-03-30T01:18:51;100269.06;;;4.76;100.00
54512;BME280;40419;47.438;19.026;2023-03-30T01:32:57;100252.25;;;4.56;100.00
54512;BME280;40419;47.438;19.026;2023-03-30T01:41:32;100245.09;;;4.38;100.00
54512;BME280;40419;47.438;19.026;2023-03-30T01:52:16;100251.22;;;3.85;100.00
54512;BME280;40419;47.438;19.026;2023-03-30T01:55:12;100247.25;;;3.89;100.00
54512;BME280;40419;47.438;19.026;2023-03-30T02:00:13;100248.53;;;3.85;100.00
54512;BME280;40419;47.438;19.026;2023-03-30T02:02:53;100248.00;;;3.81;100.00
54512;BME280;40419;47.438;19.026;2023-03-30T02:05:21;100245.94;;;3.75;100.00
54512;BME280;40419;47.438;19.026;2023-03-30T02:07:59;100237.22;;;3.73;100.00
54512;BME280;40419;47.438;19.026;2023-03-30T02:10:31;100241.03;;;3.61;100.00
54512;BME280;40419;47.438;19.026;2023-03-30T02:12:58;100233.44;;;3.66;100.00
54512;BME280;40419;47.438;19.026;2023-03-30T02:15:35;100224.41;;;3.67;100.00
54512;BME280;40419;47.438;19.026;2023-03-30T02:18:01;100227.78;;;3.69;100.00
54512;BME280;40419;47.438;19.026;2023-03-30T02:20:30;100230.16;;;3.72;100.00
54512;BME280;40419;47.438;19.026;2023-03-30T02:23:00;100221.28;;;3.71;100.00
54512;BME280;40419;47.438;19.026;2023-03-30T02:25:30;100218.34;;;3.65;100.00
54512;BME280;40419;47.438;19.026;2023-03-30T02:27:56;100215.66;;;3.65;100.00
54512;BME280;40419;47.438;19.026;2023-03-30T02:30:24;100215.22;;;3.69;100.00
54512;BME280;40419;47.438;19.026;2023-03-30T02:32:54;100225.84;;;3.61;100.00
54512;BME280;40419;47.438;19.026;2023-03-30T02:52:25;100224.78;;;3.72;100.00
54512;BME280;40419;47.438;19.026;2023-03-30T03:01:18;100231.03;;;3.90;100.00
54512;BME280;40419;47.438;19.026;2023-03-30T03:04:08;100225.66;;;3.90;100.00
54512;BME280;40419;47.438;19.026;2023-03-30T03:06:44;100228.44;;;3.99;100.00
54512;BME280;40419;47.438;19.026;2023-03-30T03:09:12;100235.25;;;3.93;100.00
54512;BME280;40419;47.438;19.026;2023-03-30T03:11:39;100227.44;;;4.00;100.00
54512;BME280;40419;47.438;19.026;2023-03-30T03:14:07;100239.91;;;4.09;100.00
54512;BME280;40419;47.438;19.026;2023-03-30T03:16:38;100229.75;;;3.95;100.00
54512;BME280;40419;47.438;19.026;2023-03-30T03:19:14;100222.31;;;3.88;100.00
54512;BME280;40419;47.438;19.026;2023-03-30T03:21:41;100233.56;;;3.92;100.00
54512;BME280;40419;47.438;19.026;2023-03-30T03:24:12;100229.63;;;3.86;100.00
54512;BME280;40419;47.438;19.026;2023-03-30T03:27:15;100224.31;;;4.04;100.00
54512;BME280;40419;47.438;19.026;2023-03-30T03:30:03;100233.72;;;4.08;100.00
54512;BME280;40419;47.438;19.026;2023-03-30T03:32:39;100256.88;;;4.10;100.00
54512;BME280;40419;47.438;19.026;2023-03-30T03:35:08;100250.34;;;4.12;100.00
54512;BME280;40419;47.438;19.026;2023-03-30T03:37:36;100246.69;;;4.13;100.00
54512;BME280;40419;47.438;19.026;2023-03-30T03:40:07;100250.25;;;4.04;100.00
54512;BME280;40419;47.438;19.026;2023-03-30T03:42:40;100238.00;;;4.01;100.00
54512;BME280;40419;47.438;19.026;2023-03-30T03:45:14;100233.97;;;3.97;100.00
54512;BME280;40419;47.438;19.026;2023-03-30T03:47:50;100232.03;;;4.07;100.00
54512;BME280;40419;47.438;19.026;2023-03-30T03:50:26;100243.91;;;4.05;100.00
54512;BME280;40419;47.438;19.026;2023-03-30T03:52:54;100241.09;;;4.06;100.00
54512;BME280;40419;47.438;19.026;2023-03-30T03:55:20;100235.25;;;3.93;100.00
54512;BME280;40419;47.438;19.026;2023-03-30T03:57:50;100231.47;;;3.86;100.00
54512;BME280;40419;47.438;19.026;2023-03-30T04:00:16;100226.03;;;3.78;100.00
54512;BME280;40419;47.438;19.026;2023-03-30T04:02:52;100217.59;;;3.72;100.00
54512;BME280;40419;47.438;19.026;2023-03-30T04:05:17;100210.13;;;3.76;100.00
54512;BME280;40419;47.438;19.026;2023-03-30T04:07:43;100206.84;;;3.82;100.00
54512;BME280;40419;47.438;19.026;2023-03-30T04:10:13;100208.81;;;3.80;100.00
54512;BME280;40419;47.438;19.026;2023-03-30T04:12:47;100208.91;;;3.88;100.00
54512;BME280;40419;47.438;19.026;2023-03-30T04:15:25;100201.94;;;3.78;100.00
54512;BME280;40419;47.438;19.026;2023-03-30T04:18:15;100211.91;;;3.85;100.00
54512;BME280;40419;47.438;19.026;2023-03-30T04:21:06;100210.59;;;3.89;100.00
54512;BME280;40419;47.438;19.026;2023-03-30T04:23:54;100188.16;;;3.90;100.00
54512;BME280;40419;47.438;19.026;2023-03-30T04:26:45;100190.84;;;3.90;100.00
54512;BME280;40419;47.438;19.026;2023-03-30T04:29:34;100199.19;;;4.05;100.00
54512;BME280;40419;47.438;19.026;2023-03-30T04:32:25;100206.59;;;3.94;100.00
54512;BME280;40419;47.438;19.026;2023-03-30T04:35:15;100204.19;;;4.00;100.00
54512;BME280;40419;47.438;19.026;2023-03-30T04:37:55;100215.50;;;4.12;100.00
54512;BME280;40419;47.438;19.026;2023-03-30T04:41:02;100209.25;;;4.21;100.00
54512;BME280;40419;47.438;19.026;2023-03-30T04:43:54;100206.31;;;4.15;100.00
54512;BME280;40419;47.438;19.026;2023-03-30T04:46:31;100201.97;;;4.14;100.00
54512;BME280;40419;47.438;19.026;2023-03-30T04:49:22;100192.25;;;4.13;100.00
54512;BME280;40419;47.438;19.026;2023-03-30T04:52:11;100187.41;;;4.16;100.00
54512;BME280;40419;47.438;19.026;2023-03-30T04:55:18;100191.94;;;4.16;100.00
54512;BME280;40419;47.438;19.026;2023-03-30T04:58:02;100191.16;;;4.05;98.02
54512;BME280;40419;47.438;19.026;2023-03-30T05:00:31;100191.53;;;4.11;95.42
54512;BME280;40419;47.438;19.026;2023-03-30T05:03:17;100184.41;;;4.19;95.35
54512;BME280;40419;47.438;19.026;2023-03-30T05:06:01;100187.03;;;4.29;96.01
54512;BME280;40419;47.438;19.026;2023-03-30T05:08:49;100188.53;;;4.32;94.49
54512;BME280;40419;47.438;19.026;2023-03-30T05:11:37;100188.78;;;4.20;93.44
54512;BME280;40419;47.438;19.026;2023-03-30T05:14:31;100195.44;;;4.34;97.59
54512;BME280;40419;47.438;19.026;2023-03-30T05:17:16;100194.19;;;4.47;98.54
54512;BME280;40419;47.438;19.026;2023-03-30T05:20:16;100192.59;;;4.54;96.72
54512;BME280;40419;47.438;19.026;2023-03-30T05:22:58;100206.09;;;4.62;95.67
54512;BME280;40419;47.438;19.026;2023-03-30T05:25:43;100200.94;;;4.51;95.85
54512;BME280;40419;47.438;19.026;2023-03-30T05:28:32;100192.44;;;4.55;93.08
54512;BME280;40419;47.438;19.026;2023-03-30T05:31:35;100192.97;;;4.59;94.16
54512;BME280;40419;47.438;19.026;2023-03-30T05:34:09;100200.00;;;4.60;92.46
54512;BME280;40419;47.438;19.026;2023-03-30T05:37:13;100198.78;;;4.54;93.11
54512;BME280;40419;47.438;19.026;2023-03-30T05:39:57;100186.41;;;4.53;94.38
54512;BME280;40419;47.438;19.026;2023-03-30T05:42:52;100177.56;;;4.61;92.92
54512;BME280;40419;47.438;19.026;2023-03-30T05:45:40;100176.09;;;4.67;93.50
54512;BME280;40419;47.438;19.026;2023-03-30T05:48:32;100180.84;;;4.73;93.74
54512;BME280;40419;47.438;19.026;2023-03-30T05:51:21;100170.47;;;4.78;92.02
54512;BME280;40419;47.438;19.026;2023-03-30T05:54:02;100169.19;;;4.90;90.58
54512;BME280;40419;47.438;19.026;2023-03-30T05:56:46;100173.44;;;5.01;88.59
54512;BME280;40419;47.438;19.026;2023-03-30T05:59:25;100190.53;;;5.26;89.22
54512;BME280;40419;47.438;19.026;2023-03-30T06:02:02;100194.09;;;5.35;85.24
54512;BME280;40419;47.438;19.026;2023-03-30T06:04:28;100196.66;;;5.45;88.13
54512;BME280;40419;47.438;19.026;2023-03-30T06:06:53;100182.94;;;5.56;87.53
54512;BME280;40419;47.438;19.026;2023-03-30T06:09:27;100182.94;;;5.56;85.00
54512;BME280;40419;47.438;19.026;2023-03-30T06:12:00;100178.34;;;5.83;81.19
54512;BME280;40419;47.438;19.026;2023-03-30T06:14:29;100176.75;;;5.64;83.40
54512;BME280;40419;47.438;19.026;2023-03-30T06:17:36;100170.66;;;5.96;81.52
54512;BME280;40419;47.438;19.026;2023-03-30T06:20:09;100161.78;;;6.04;81.91
54512;BME280;40419;47.438;19.026;2023-03-30T06:22:41;100158.94;;;6.06;82.08
54512;BME280;40419;47.438;19.026;2023-03-30T06:25:13;100158.75;;;6.32;81.95
54512;BME280;40419;47.438;19.026;2023-03-30T06:27:44;100154.75;;;6.52;80.78
54512;BME280;40419;47.438;19.026;2023-03-30T06:30:12;100151.84;;;6.62;80.88
54512;BME280;40419;47.438;19.026;2023-03-30T06:32:42;100146.75;;;6.84;78.63
54512;BME280;40419;47.438;19.026;2023-03-30T06:35:31;100145.59;;;6.86;78.02
54512;BME280;40419;47.438;19.026;2023-03-30T06:38:00;100150.81;;;6.88;78.37
54512;BME280;40419;47.438;19.026;2023-03-30T06:40:25;100147.88;;;7.14;76.46
54512;BME280;40419;47.438;19.026;2023-03-30T06:42:54;100142.19;;;7.01;77.60
54512;BME280;40419;47.438;19.026;2023-03-30T06:45:30;100142.06;;;6.78;79.67
54512;BME280;40419;47.438;19.026;2023-03-30T06:47:59;100139.72;;;6.83;78.46
54512;BME280;40419;47.438;19.026;2023-03-30T06:50:24;100135.16;;;6.91;78.49
54512;BME280;40419;47.438;19.026;2023-03-30T06:53:10;100130.91;;;6.97;79.22
54512;BME280;40419;47.438;19.026;2023-03-30T06:55:41;100145.53;;;7.11;79.12
54512;BME280;40419;47.438;19.026;2023-03-30T06:58:12;100145.41;;;6.88;80.61
54512;BME280;40419;47.438;19.026;2023-03-30T07:00:37;100152.00;;;6.77;80.96
54512;BME280;40419;47.438;19.026;2023-03-30T07:03:21;100148.50;;;6.60;81.60
54512;BME280;40419;47.438;19.026;2023-03-30T07:05:53;100156.75;;;6.59;81.56
54512;BME280;40419;47.438;19.026;2023-03-30T07:08:35;100158.06;;;6.71;81.62
54512;BME280;40419;47.438;19.026;2023-03-30T07:11:03;100154.53;;;6.79;81.91
54512;BME280;40419;47.438;19.026;2023-03-30T07:13:32;100160.75;;;6.79;80.69
54512;BME280;40419;47.438;19.026;2023-03-30T07:15:58;100155.56;;;6.69;82.69
54512;BME280;40419;47.438;19.026;2023-03-30T07:18:26;100151.50;;;6.82;83.82
54512;BME280;40419;47.438;19.026;2023-03-30T07:20:51;100146.63;;;6.77;84.96
54512;BME280;40419;47.438;19.026;2023-03-30T07:23:26;100139.91;;;6.81;83.81
54512;BME280;40419;47.438;19.026;2023-03-30T07:25:56;100142.06;;;6.86;85.06
54512;BME280;40419;47.438;19.026;2023-03-30T07:28:37;100159.63;;;7.21;83.25
54512;BME280;40419;47.438;19.026;2023-03-30T07:31:07;100144.28;;;7.30;82.17
54512;BME280;40419;47.438;19.026;2023-03-30T07:33:34;100156.88;;;7.38;82.38
54512;BME280;40419;47.438;19.026;2023-03-30T07:36:02;100158.25;;;7.34;81.60
54512;BME280;40419;47.438;19.026;2023-03-30T07:38:29;100153.66;;;7.42;80.35
54512;BME280;40419;47.438;19.026;2023-03-30T07:40:58;100152.88;;;7.65;83.31
54512;BME280;40419;47.438;19.026;2023-03-30T07:43:26;100136.94;;;7.55;81.87
54512;BME280;40419;47.438;19.026;2023-03-30T07:45:54;100148.25;;;7.82;80.69
54512;BME280;40419;47.438;19.026;2023-03-30T07:48:27;100152.59;;;7.83;80.39
54512;BME280;40419;47.438;19.026;2023-03-30T07:51:08;100153.28;;;8.08;81.03
54512;BME280;40419;47.438;19.026;2023-03-30T07:53:46;100177.09;;;8.28;78.22
54512;BME280;40419;47.438;19.026;2023-03-30T07:56:19;100164.78;;;8.02;79.88
54512;BME280;40419;47.438;19.026;2023-03-30T07:58:46;100171.56;;;8.21;79.54
54512;BME280;40419;47.438;19.026;2023-03-30T08:01:16;100166.34;;;8.20;80.04
54512;BME280;40419;47.438;19.026;2023-03-30T08:04:08;100154.97;;;8.32;80.14
54512;BME280;40419;47.438;19.026;2023-03-30T08:06:37;100153.09;;;8.33;79.53
54512;BME280;40419;47.438;19.026;2023-03-30T08:09:05;100148.91;;;8.54;79.48
54512;BME280;40419;47.438;19.026;2023-03-30T08:11:35;100139.06;;;8.38;79.30
54512;BME280;40419;47.438;19.026;2023-03-30T08:14:03;100155.69;;;8.26;79.78
54512;BME280;40419;47.438;19.026;2023-03-30T08:16:28;100144.84;;;8.58;80.98
54512;BME280;40419;47.438;19.026;2023-03-30T08:18:54;100148.88;;;8.92;79.62
54512;BME280;40419;47.438;19.026;2023-03-30T08:21:24;100145.34;;;9.06;78.25
54512;BME280;40419;47.438;19.026;2023-03-30T08:23:53;100133.44;;;9.15;76.81
54512;BME280;40419;47.438;19.026;2023-03-30T08:26:22;100134.00;;;9.11;76.65
54512;BME280;40419;47.438;19.026;2023-03-30T08:28:50;100125.41;;;8.92;78.08
54512;BME280;40419;47.438;19.026;2023-03-30T08:31:17;100136.78;;;8.73;76.27
54512;BME280;40419;47.438;19.026;2023-03-30T08:33:48;100133.84;;;8.59;78.63
54512;BME280;40419;47.438;19.026;2023-03-30T08:36:18;100132.66;;;8.92;78.25
54512;BME280;40419;47.438;19.026;2023-03-30T08:38:48;100138.38;;;8.97;77.40
54512;BME280;40419;47.438;19.026;2023-03-30T08:46:43;100133.34;;;8.94;76.50
54512;BME280;40419;47.438;19.026;2023-03-30T08:49:14;100130.91;;;8.84;78.68
54512;BME280;40419;47.438;19.026;2023-03-30T08:51:43;100128.28;;;8.91;79.30
54512;BME280;40419;47.438;19.026;2023-03-30T08:54:15;100132.22;;;9.03;79.11
54512;BME280;40419;47.438;19.026;2023-03-30T09:02:02;100123.00;;;9.12;81.72
54512;BME280;40419;47.438;19.026;2023-03-30T09:07:38;100114.38;;;9.38;83.03
54512;BME280;40419;47.438;19.026;2023-03-30T09:10:13;100136.84;;;9.39;80.83
54512;BME280;40419;47.438;19.026;2023-03-30T09:12:42;100117.31;;;9.58;78.02
54512;BME280;40419;47.438;19.026;2023-03-30T09:15:30;100108.78;;;9.40;80.34
54512;BME280;40419;47.438;19.026;2023-03-30T09:18:11;100104.06;;;10.00;78.29
54512;BME280;40419;47.438;19.026;2023-03-30T09:20:39;100114.09;;;10.06;79.33
54512;BME280;40419;47.438;19.026;2023-03-30T09:23:10;100106.75;;;9.79;77.47
54512;BME280;40419;47.438;19.026;2023-03-30T09:28:25;100104.50;;;9.82;77.86
54512;BME280;40419;47.438;19.026;2023-03-30T09:30:59;100104.34;;;9.69;78.69
54512;BME280;40419;47.438;19.026;2023-03-30T09:38:43;100084.94;;;9.80;77.66
54512;BME280;40419;47.438;19.026;2023-03-30T09:41:17;100082.41;;;9.79;78.36
54512;BME280;40419;47.438;19.026;2023-03-30T09:43:48;100074.13;;;9.80;77.46
54512;BME280;40419;47.438;19.026;2023-03-30T09:46:17;100070.88;;;9.91;77.90
54512;BME280;40419;47.438;19.026;2023-03-30T09:48:47;100067.22;;;9.78;76.50
54512;BME280;40419;47.438;19.026;2023-03-30T09:51:27;100053.09;;;9.82;78.90
54512;BME280;40419;47.438;19.026;2023-03-30T09:54:04;100053.44;;;9.94;78.36
54512;BME280;40419;47.438;19.026;2023-03-30T09:59:36;100051.56;;;10.44;77.01
54512;BME280;40419;47.438;19.026;2023-03-30T10:07:31;100047.75;;;10.60;77.21
54512;BME280;40419;47.438;19.026;2023-03-30T10:10:11;100042.22;;;10.82;75.69
54512;BME280;40419;47.438;19.026;2023-03-30T10:12:37;100037.31;;;10.99;75.88
54512;BME280;40419;47.438;19.026;2023-03-30T10:15:03;100045.44;;;10.99;76.43
54512;BME280;40419;47.438;19.026;2023-03-30T10:17:29;100043.16;;;10.61;75.11
54512;BME280;40419;47.438;19.026;2023-03-30T10:25:26;100037.69;;;10.54;76.51
54512;BME280;40419;47.438;19.026;2023-03-30T10:27:55;100028.16;;;10.58;75.97
54512;BME280;40419;47.438;19.026;2023-03-30T10:30:24;100031.31;;;10.69;75.71
54512;BME280;40419;47.438;19.026;2023-03-30T10:32:55;100021.00;;;10.86;76.92
54512;BME280;40419;47.438;19.026;2023-03-30T10:35:24;100022.31;;;10.96;76.44
54512;BME280;40419;47.438;19.026;2023-03-30T10:37:54;100007.28;;;10.87;76.39
54512;BME280;40419;47.438;19.026;2023-03-30T10:40:24;100003.09;;;10.85;75.83
54512;BME280;40419;47.438;19.026;2023-03-30T10:42:56;99997.41;;;10.73;76.01
54512;BME280;40419;47.438;19.026;2023-03-30T10:45:33;100002.19;;;10.71;77.93
54512;BME280;40419;47.438;19.026;2023-03-30T10:54:31;99992.25;;;11.46;76.35
54512;BME280;40419;47.438;19.026;2023-03-30T10:57:14;99989.31;;;11.48;74.22
54512;BME280;40419;47.438;19.026;2023-03-30T11:00:05;99987.47;;;11.55;74.12
54512;BME280;40419;47.438;19.026;2023-03-30T11:03:28;99976.00;;;11.60;74.23
54512;BME280;40419;47.438;19.026;2023-03-30T11:10:36;99977.06;;;11.92;72.88
54512;BME280;40419;47.438;19.026;2023-03-30T11:13:16;99979.75;;;11.65;73.71
54512;BME280;40419;47.438;19.026;2023-03-30T11:16:00;99978.50;;;11.61;74.26
54512;BME280;40419;47.438;19.026;2023-03-30T11:21:09;99981.94;;;11.22;76.79
54512;BME280;40419;47.438;19.026;2023-03-30T11:26:09;99978.66;;;11.40;78.32
54512;BME280;40419;47.438;19.026;2023-03-30T11:28:42;99971.00;;;11.63;76.86
54512;BME280;40419;47.438;19.026;2023-03-30T11:34:12;99952.22;;;11.55;77.15
54512;BME280;40419;47.438;19.026;2023-03-30T11:36:56;99949.75;;;12.00;74.31
54512;BME280;40419;47.438;19.026;2023-03-30T11:39:35;99939.03;;;12.39;73.44
54512;BME280;40419;47.438;19.026;2023-03-30T11:42:26;99936.31;;;12.46;73.06
54512;BME280;40419;47.438;19.026;2023-03-30T11:44:57;99934.38;;;12.53;72.94
54512;BME280;40419;47.438;19.026;2023-03-30T11:50:31;99930.91;;;12.84;72.95
54512;BME280;40419;47.438;19.026;2023-03-30T11:58:20;99918.09;;;12.98;71.13
54512;BME280;40419;47.438;19.026;2023-03-30T12:04:08;99896.13;;;13.00;70.29
54512;BME280;40419;47.438;19.026;2023-03-30T12:06:41;99905.59;;;12.97;69.51
54512;BME280;40419;47.438;19.026;2023-03-30T12:19:48;99877.56;;;13.60;74.00
54512;BME280;40419;47.438;19.026;2023-03-30T12:25:17;99869.53;;;13.40;72.56
54512;BME280;40419;47.438;19.026;2023-03-30T12:28:15;99849.81;;;13.52;70.82
54512;BME280;40419;47.438;19.026;2023-03-30T12:33:18;99859.75;;;13.33;73.08
54512;BME280;40419;47.438;19.026;2023-03-30T12:38:21;99850.47;;;13.47;73.46
54512;BME280;40419;47.438;19.026;2023-03-30T12:41:00;99844.09;;;13.28;74.78
54512;BME280;40419;47.438;19.026;2023-03-30T12:43:48;99842.41;;;13.27;72.28
54512;BME280;40419;47.438;19.026;2023-03-30T12:46:34;99843.97;;;13.16;73.78
54512;BME280;40419;47.438;19.026;2023-03-30T12:49:30;99837.72;;;13.16;72.82
54512;BME280;40419;47.438;19.026;2023-03-30T12:52:22;99834.94;;;13.22;73.93
54512;BME280;40419;47.438;19.026;2023-03-30T12:55:23;99815.41;;;13.32;74.21
54512;BME280;40419;47.438;19.026;2023-03-30T13:06:22;99808.94;;;13.58;72.20
54512;BME280;40419;47.438;19.026;2023-03-30T13:08:54;99800.63;;;13.53;71.29
54512;BME280;40419;47.438;19.026;2023-03-30T13:11:21;99803.16;;;13.48;70.85
54512;BME280;40419;47.438;19.026;2023-03-30T13:13:59;99793.69;;;13.76;70.40
54512;BME280;40419;47.438;19.026;2023-03-30T13:16:47;99802.31;;;13.73;72.62
54512;BME280;40419;47.438;19.026;2023-03-30T13:29:41;99791.13;;;13.37;72.04
54512;BME280;40419;47.438;19.026;2023-03-30T13:40:16;99790.09;;;13.38;75.09
54512;BME280;40419;47.438;19.026;2023-03-30T13:43:08;99784.06;;;13.29;74.54
54512;BME280;40419;47.438;19.026;2023-03-30T13:51:12;99771.13;;;13.25;75.55
54512;BME280;40419;47.438;19.026;2023-03-30T13:54:03;99773.84;;;13.25;77.06
54512;BME280;40419;47.438;19.026;2023-03-30T13:56:36;99758.38;;;13.25;78.20
54512;BME280;40419;47.438;19.026;2023-03-30T14:01:30;99755.41;;;13.27;80.08
54512;BME280;40419;47.438;19.026;2023-03-30T14:03:59;99738.06;;;13.28;76.98
54512;BME280;40419;47.438;19.026;2023-03-30T14:06:29;99741.22;;;13.25;78.31
54512;BME280;40419;47.438;19.026;2023-03-30T14:14:05;99734.66;;;13.39;76.53
54512;BME280;40419;47.438;19.026;2023-03-30T14:16:36;99733.25;;;13.30;76.97
54512;BME280;40419;47.438;19.026;2023-03-30T14:19:24;99733.06;;;13.25;77.95
54512;BME280;40419;47.438;19.026;2023-03-30T14:21:55;99718.69;;;13.18;78.90
54512;BME280;40419;47.438;19.026;2023-03-30T14:24:29;99716.38;;;13.21;78.47
54512;BME280;40419;47.438;19.026;2023-03-30T14:29:32;99699.66;;;13.18;79.58
54512;BME280;40419;47.438;19.026;2023-03-30T14:31:59;99697.03;;;13.11;80.05
54512;BME280;40419;47.438;19.026;2023-03-30T14:34:26;99693.41;;;13.17;78.36
54512;BME280;40419;47.438;19.026;2023-03-30T14:36:53;99679.91;;;13.29;78.10
54512;BME280;40419;47.438;19.026;2023-03-30T14:39:23;99669.09;;;13.22;79.88
54512;BME280;40419;47.438;19.026;2023-03-30T14:41:50;99668.28;;;13.22;80.43
54512;BME280;40419;47.438;19.026;2023-03-30T14:44:18;99652.78;;;13.22;79.36
54512;BME280;40419;47.438;19.026;2023-03-30T14:46:50;99646.53;;;13.22;79.79
54512;BME280;40419;47.438;19.026;2023-03-30T14:51:58;99639.88;;;13.18;78.88
54512;BME280;40419;47.438;19.026;2023-03-30T14:54:27;99636.88;;;13.26;78.62
54512;BME280;40419;47.438;19.026;2023-03-30T14:56:59;99627.28;;;13.23;78.72
54512;BME280;40419;47.438;19.026;2023-03-30T14:59:29;99624.09;;;13.08;80.09
54512;BME280;40419;47.438;19.026;2023-03-30T15:01:57;99622.38;;;13.14;80.28
54512;BME280;40419;47.438;19.026;2023-03-30T15:04:27;99619.44;;;13.15;80.84
54512;BME280;40419;47.438;19.026;2023-03-30T15:06:53;99620.69;;;13.12;79.03
54512;BME280;40419;47.438;19.026;2023-03-30T15:09:23;99616.84;;;13.02;81.34
54512;BME280;40419;47.438;19.026;2023-03-30T15:11:56;99611.63;;;13.00;80.51
54512;BME280;40419;47.438;19.026;2023-03-30T15:14:23;99601.03;;;12.92;81.43
54512;BME280;40419;47.438;19.026;2023-03-30T15:16:53;99592.53;;;12.88;82.13
54512;BME280;40419;47.438;19.026;2023-03-30T15:19:31;99592.84;;;12.99;81.06
54512;BME280;40419;47.438;19.026;2023-03-30T15:22:03;99589.66;;;12.83;81.99
54512;BME280;40419;47.438;19.026;2023-03-30T15:24:35;99575.31;;;12.76;82.95
54512;BME280;40419;47.438;19.026;2023-03-30T15:27:07;99579.72;;;12.70;83.89
54512;BME280;40419;47.438;19.026;2023-03-30T15:29:41;99579.59;;;12.84;83.85
54512;BME280;40419;47.438;19.026;2023-03-30T15:34:57;99598.22;;;12.80;83.72
54512;BME280;40419;47.438;19.026;2023-03-30T15:37:26;99608.03;;;12.81;85.11
54512;BME280;40419;47.438;19.026;2023-03-30T15:39:55;99611.41;;;12.58;90.18
54512;BME280;40419;47.438;19.026;2023-03-30T15:42:25;99609.94;;;12.55;88.39
54512;BME280;40419;47.438;19.026;2023-03-30T15:45:07;99631.53;;;12.50;92.62
54512;BME280;40419;47.438;19.026;2023-03-30T15:47:33;99627.06;;;12.56;88.86
54512;BME280;40419;47.438;19.026;2023-03-30T15:50:02;99631.31;;;12.52;88.27
54512;BME280;40419;47.438;19.026;2023-03-30T15:52:33;99642.59;;;12.49;90.76
54512;BME280;40419;47.438;19.026;2023-03-30T15:55:27;99652.28;;;12.38;92.76
54512;BME280;40419;47.438;19.026;2023-03-30T15:57:53;99655.47;;;12.28;94.14
54512;BME280;40419;47.438;19.026;2023-03-30T16:00:21;99644.91;;;12.20;94.21
54512;BME280;40419;47.438;19.026;2023-03-30T16:02:52;99636.34;;;12.16;94.16
54512;BME280;40419;47.438;19.026;2023-03-30T16:05:31;99620.72;;;12.12;95.92
54512;BME280;40419;47.438;19.026;2023-03-30T16:07:58;99614.47;;;12.11;96.52
54512;BME280;40419;47.438;19.026;2023-03-30T16:10:32;99618.94;;;11.92;100.00
54512;BME280;40419;47.438;19.026;2023-03-30T16:13:02;99621.53;;;11.74;100.00
54512;BME280;40419;47.438;19.026;2023-03-30T16:15:32;99609.81;;;11.80;100.00
54512;BME280;40419;47.438;19.026;2023-03-30T16:18:00;99615.09;;;11.68;100.00
54512;BME280;40419;47.438;19.026;2023-03-30T16:20:31;99619.19;;;11.39;100.00
54512;BME280;40419;47.438;19.026;2023-03-30T16:22:59;99618.84;;;11.15;100.00
54512;BME280;40419;47.438;19.026;2023-03-30T16:25:27;99604.84;;;11.18;100.00
54512;BME280;40419;47.438;19.026;2023-03-30T16:28:00;99604.25;;;11.16;100.00
54512;BME280;40419;47.438;19.026;2023-03-30T16:30:29;99589.81;;;11.29;100.00